HCS weather

Centro Corporativo Santander Heliport
Alvaro Obregon, Distrito Federal, Mexico

Public forecast

Using degrees Celsius for public forecast. Weather courtesy of forecast.io.

METAR (pilot weather report)

Closest report is Licenciado Benito Juarez International Airport, 11.0 nm (20.4 km) ENE. Retrieved 2019/08/23 19:45 UTC (1 hour ago):

MMMX 231945Z 35005KT 6SM SCT025TCU BKN080 24/10 A3027 NOSIG RMK 8/230 HZY ISOL CI DSNT CB E AND W

TAF (pilot weather forecast)

Closest forecast is Licenciado Benito Juarez International Airport, 11.0 nm (20.4 km) ENE. Retrieved 2019/08/23 18:30 UTC (2 hours ago):

TAF MMMX 231626Z 2318/2424 05007KT 6SM HZ SCT025 BKN090 TX25/2321Z TN16/2412Z TEMPO 2322/2401 5SM TSRA BKN020CB FM240200 22006KT 6SM HZ SCT025 BKN090 FM241600 05005KT 5SM HZ SCT020 FM242000 07012KT P6SM BKN030 BKN090 VC CB